createdAt,value
2022-09-06T00:00:58.053Z,23.32
2022-09-06T00:03:27.584Z,23.30
2022-09-06T00:05:54.513Z,23.25
2022-09-06T00:08:21.105Z,23.26
2022-09-06T00:10:47.589Z,23.22
2022-09-06T00:13:14.129Z,23.23
2022-09-06T00:15:40.754Z,23.26
2022-09-06T00:18:07.679Z,23.26
2022-09-06T00:20:34.871Z,23.22
2022-09-06T00:23:03.676Z,23.21
2022-09-06T00:25:30.738Z,23.23
2022-09-06T00:27:58.775Z,23.21
2022-09-06T00:30:26.178Z,23.21
2022-09-06T00:32:54.737Z,23.22
2022-09-06T00:35:24.648Z,23.21
2022-09-06T00:37:55.920Z,23.18
2022-09-06T00:40:22.377Z,23.17
2022-09-06T00:42:48.806Z,23.12
2022-09-06T00:45:15.556Z,23.08
2022-09-06T00:47:43.158Z,23.07
2022-09-06T00:50:11.676Z,23.07
2022-09-06T00:52:39.394Z,23.03
2022-09-06T00:55:06.574Z,23.01
2022-09-06T00:57:33.491Z,22.95
2022-09-06T01:00:00.770Z,22.94
2022-09-06T01:02:27.563Z,22.92
2022-09-06T01:04:57.695Z,22.92
2022-09-06T01:07:30.111Z,22.95
2022-09-06T01:10:21.898Z,22.98
2022-09-06T01:13:08.119Z,22.96
2022-09-06T01:16:02.999Z,23.02
2022-09-06T01:18:48.753Z,23.04
2022-09-06T01:21:31.592Z,23.08
2022-09-06T01:24:16.514Z,23.07
2022-09-06T01:27:33.673Z,23.01
2022-09-06T01:30:13.012Z,22.93
2022-09-06T01:33:00.302Z,22.92
2022-09-06T01:35:39.635Z,22.90
2022-09-06T01:38:08.273Z,22.89
2022-09-06T01:40:37.717Z,22.87
2022-09-06T01:43:11.327Z,22.79
2022-09-06T01:46:05.534Z,22.78
2022-09-06T01:48:45.006Z,22.77
2022-09-06T01:51:26.946Z,22.76
2022-09-06T01:54:26.253Z,22.63
2022-09-06T01:57:17.421Z,22.59
2022-09-06T02:00:00.596Z,22.58
2022-09-06T02:02:48.944Z,22.57
2022-09-06T02:05:27.538Z,22.57
2022-09-06T02:07:59.043Z,22.55
2022-09-06T02:10:41.125Z,22.48
2022-09-06T02:13:10.758Z,22.50
2022-09-06T02:15:41.697Z,22.51
2022-09-06T02:18:19.062Z,22.54
2022-09-06T02:20:50.961Z,22.56
2022-09-06T02:23:19.428Z,22.52
2022-09-06T02:25:59.580Z,22.54
2022-09-06T02:28:26.809Z,22.51
2022-09-06T02:31:02.866Z,22.47
2022-09-06T02:33:33.421Z,22.43
2022-09-06T02:36:06.059Z,22.44
2022-09-06T02:38:34.105Z,22.42
2022-09-06T02:41:01.165Z,22.42
2022-09-06T02:43:28.708Z,22.44
2022-09-06T02:45:55.159Z,22.46
2022-09-06T02:48:22.397Z,22.46
2022-09-06T02:50:48.916Z,22.42
2022-09-06T02:53:15.876Z,22.37
2022-09-06T02:55:42.706Z,22.36
2022-09-06T02:58:11.219Z,22.34
2022-09-06T03:00:37.953Z,22.33
2022-09-06T03:03:04.905Z,22.31
2022-09-06T03:05:31.926Z,22.29
2022-09-06T03:07:58.515Z,22.30
2022-09-06T03:10:26.162Z,22.31
2022-09-06T03:12:53.479Z,22.23
2022-09-06T03:15:20.383Z,22.22
2022-09-06T03:17:46.906Z,22.14
2022-09-06T03:20:13.553Z,22.06
2022-09-06T03:22:40.914Z,22.00
2022-09-06T03:25:08.945Z,21.96
2022-09-06T03:27:35.925Z,21.94
2022-09-06T03:30:02.814Z,21.96
2022-09-06T03:32:29.267Z,21.98
2022-09-06T03:34:55.784Z,21.98
2022-09-06T03:37:22.218Z,21.96
2022-09-06T03:39:48.695Z,21.92
2022-09-06T03:42:15.142Z,21.89
2022-09-06T03:44:41.592Z,21.88
2022-09-06T03:47:08.057Z,21.88
2022-09-06T03:49:35.773Z,21.89
2022-09-06T03:52:02.382Z,21.83
2022-09-06T03:54:29.086Z,21.77
2022-09-06T03:56:55.788Z,21.75
2022-09-06T03:59:22.214Z,21.67
2022-09-06T04:01:48.651Z,21.65
2022-09-06T04:04:15.115Z,21.65
2022-09-06T04:06:41.564Z,21.67
2022-09-06T04:09:08.027Z,21.62
2022-09-06T04:11:34.500Z,21.61
2022-09-06T04:14:00.962Z,21.59
2022-09-06T04:16:27.467Z,21.61
2022-09-06T04:18:53.965Z,21.61
2022-09-06T04:21:20.411Z,21.59
2022-09-06T04:23:49.720Z,21.61
2022-09-06T04:26:16.387Z,21.61
2022-09-06T04:28:42.835Z,21.61
2022-09-06T04:31:09.268Z,21.62
2022-09-06T04:33:38.146Z,21.64
2022-09-06T04:36:07.522Z,21.64
2022-09-06T04:38:40.005Z,21.63
2022-09-06T04:41:07.037Z,21.62
2022-09-06T04:43:36.414Z,21.63
2022-09-06T04:46:25.128Z,21.65
2022-09-06T04:48:53.458Z,21.62
2022-09-06T04:51:20.845Z,21.57
2022-09-06T04:53:47.304Z,21.49
2022-09-06T04:56:16.680Z,21.48
2022-09-06T04:58:44.308Z,21.49
2022-09-06T05:01:11.291Z,21.53
2022-09-06T05:03:38.244Z,21.57
2022-09-06T05:06:06.965Z,21.57
2022-09-06T05:08:33.550Z,21.59
2022-09-06T05:11:00.426Z,21.60
2022-09-06T05:13:29.228Z,21.62
2022-09-06T05:15:55.772Z,21.60
2022-09-06T05:18:22.203Z,21.60
2022-09-06T05:20:53.025Z,21.59
2022-09-06T05:23:20.718Z,21.61
2022-09-06T05:25:47.372Z,21.63
2022-09-06T05:28:14.291Z,21.61
2022-09-06T05:30:41.595Z,21.58
2022-09-06T05:33:10.225Z,21.56
2022-09-06T05:35:36.784Z,21.55
2022-09-06T05:38:03.534Z,21.57
2022-09-06T05:40:30.248Z,21.55
2022-09-06T05:42:56.742Z,21.57
2022-09-06T05:45:23.915Z,21.56
2022-09-06T05:47:50.419Z,21.58
2022-09-06T05:50:16.933Z,21.58
2022-09-06T05:52:43.407Z,21.59
2022-09-06T05:55:10.044Z,21.59
2022-09-06T05:57:36.546Z,21.63
2022-09-06T06:00:04.626Z,21.65
2022-09-06T06:02:31.153Z,21.68
2022-09-06T06:04:58.265Z,21.70
2022-09-06T06:07:24.781Z,21.71
2022-09-06T06:09:51.360Z,21.72
2022-09-06T06:12:17.797Z,21.70
2022-09-06T06:14:44.226Z,21.69
2022-09-06T06:17:11.233Z,21.70
2022-09-06T06:19:37.697Z,21.72
2022-09-06T06:22:04.277Z,21.75
2022-09-06T06:24:34.445Z,21.80
2022-09-06T06:27:00.908Z,21.85
2022-09-06T06:29:27.439Z,21.90
2022-09-06T06:31:53.962Z,21.95
2022-09-06T06:34:21.852Z,22.00
2022-09-06T06:36:48.358Z,22.11
2022-09-06T06:39:17.586Z,22.22
2022-09-06T06:41:44.275Z,22.26
2022-09-06T06:44:10.820Z,22.25
2022-09-06T06:46:38.504Z,22.27
2022-09-06T06:49:05.369Z,22.36
2022-09-06T06:51:33.766Z,22.47
2022-09-06T06:54:00.255Z,22.59
2022-09-06T06:56:35.202Z,22.61
2022-09-06T06:59:04.286Z,22.71
2022-09-06T07:01:33.153Z,22.79
2022-09-06T07:03:59.765Z,22.87
2022-09-06T07:09:15.744Z,23.15
2022-09-06T07:11:42.220Z,23.32
2022-09-06T07:14:08.925Z,23.41
2022-09-06T07:16:35.475Z,23.52
2022-09-06T07:19:02.195Z,23.59
2022-09-06T07:26:37.569Z,24.67
2022-09-06T07:29:05.807Z,24.96
2022-09-06T07:34:20.829Z,25.57
2022-09-06T07:36:48.163Z,25.79
2022-09-06T07:39:14.657Z,25.98
2022-09-06T07:41:41.111Z,26.07
2022-09-06T07:44:07.556Z,26.23
2022-09-06T07:46:34.443Z,26.34
2022-09-06T07:49:04.117Z,26.43
2022-09-06T07:51:30.959Z,26.80
2022-09-06T07:54:13.243Z,27.05
2022-09-06T07:56:43.977Z,27.20
2022-09-06T07:59:10.564Z,27.43
2022-09-06T08:01:38.549Z,27.62
2022-09-06T08:04:13.967Z,27.65
2022-09-06T08:09:29.959Z,27.84
2022-09-06T08:11:56.515Z,27.79
2022-09-06T08:14:23.064Z,27.96
2022-09-06T08:16:52.587Z,28.17
2022-09-06T08:19:19.029Z,28.24
2022-09-06T08:21:45.475Z,28.16
2022-09-06T08:24:11.937Z,28.05
2022-09-06T08:26:40.483Z,28.19
2022-09-06T08:29:08.660Z,28.15
2022-09-06T08:31:38.908Z,28.29
2022-09-06T08:34:06.090Z,28.38
2022-09-06T08:36:33.674Z,28.68
2022-09-06T08:39:02.270Z,28.72
2022-09-06T08:41:49.816Z,28.80
2022-09-06T08:47:12.219Z,29.33
2022-09-06T08:49:52.738Z,29.59
2022-09-06T08:53:13.102Z,29.82
2022-09-06T08:55:41.458Z,30.16
2022-09-06T08:58:32.386Z,30.32
2022-09-06T09:01:15.820Z,30.61
2022-09-06T09:03:43.749Z,30.87
2022-09-06T09:06:11.106Z,30.89
2022-09-06T09:08:59.719Z,30.87
2022-09-06T09:11:26.389Z,30.82
2022-09-06T09:14:00.303Z,30.99
2022-09-06T09:16:27.008Z,31.19
2022-09-06T09:19:00.979Z,31.32
2022-09-06T09:21:31.185Z,31.43
2022-09-06T09:24:03.257Z,31.33
2022-09-06T09:26:36.833Z,31.49
2022-09-06T09:29:06.385Z,31.80
2022-09-06T09:31:53.462Z,31.92
2022-09-06T09:34:33.990Z,32.20
2022-09-06T09:37:49.686Z,32.18
2022-09-06T09:40:25.327Z,32.19
2022-09-06T09:42:54.758Z,32.48
2022-09-06T09:45:28.964Z,32.61
2022-09-06T09:47:55.879Z,32.43
2022-09-06T09:50:35.692Z,32.74
2022-09-06T09:53:13.737Z,32.78
2022-09-06T09:55:41.655Z,32.96
2022-09-06T09:58:20.185Z,32.65
2022-09-06T10:00:46.714Z,32.95
2022-09-06T10:03:19.050Z,33.29
2022-09-06T10:06:02.537Z,33.43
2022-09-06T10:08:33.243Z,33.63
2022-09-06T10:11:00.232Z,33.73
2022-09-06T10:13:31.569Z,33.65
2022-09-06T10:15:59.875Z,33.85
2022-09-06T10:18:35.542Z,33.93
2022-09-06T10:21:13.509Z,34.12
2022-09-06T10:26:58.865Z,34.39
2022-09-06T10:29:55.897Z,34.39
2022-09-06T10:32:51.551Z,34.30
2022-09-06T10:35:26.492Z,34.37
2022-09-06T10:38:24.104Z,34.54
2022-09-06T10:41:21.422Z,34.82
2022-09-06T10:44:11.834Z,34.99
2022-09-06T10:46:43.479Z,34.90
2022-09-06T10:49:16.430Z,34.96
2022-09-06T10:51:46.694Z,34.68
2022-09-06T10:54:17.187Z,34.66
2022-09-06T10:56:56.442Z,34.79
2022-09-06T10:59:38.782Z,34.55
2022-09-06T11:02:05.744Z,34.88
2022-09-06T11:07:30.282Z,35.33
2022-09-06T11:10:06.187Z,35.04
2022-09-06T11:12:41.865Z,35.33
2022-09-06T11:15:13.130Z,35.58
2022-09-06T11:17:54.414Z,35.99
2022-09-06T11:20:39.411Z,36.29
2022-09-06T11:23:27.702Z,36.63
2022-09-06T11:26:04.112Z,36.76
2022-09-06T11:28:39.208Z,36.97
2022-09-06T11:34:07.366Z,36.42
2022-09-06T11:36:45.041Z,36.68
2022-09-06T11:39:11.522Z,36.68
2022-09-06T11:41:40.785Z,36.90
2022-09-06T11:44:10.320Z,36.80
2022-09-06T11:46:40.935Z,36.98
2022-09-06T11:49:16.348Z,37.16
2022-09-06T11:51:44.928Z,37.30
2022-09-06T11:54:14.195Z,37.18
2022-09-06T11:56:46.705Z,36.90
2022-09-06T11:59:16.074Z,36.54
2022-09-06T12:02:00.235Z,36.04
2022-09-06T12:05:00.433Z,35.90
2022-09-06T12:07:31.899Z,36.14
2022-09-06T12:10:02.604Z,36.16
2022-09-06T12:12:45.786Z,36.23
2022-09-06T12:15:31.966Z,35.96
2022-09-06T12:17:59.941Z,35.75
2022-09-06T12:20:48.475Z,36.18
2022-09-06T12:23:50.640Z,36.40
2022-09-06T12:26:36.953Z,36.44
2022-09-06T12:29:10.595Z,36.28
2022-09-06T12:31:44.099Z,36.48
2022-09-06T12:34:20.032Z,36.63
2022-09-06T12:37:05.641Z,36.85
2022-09-06T12:39:32.298Z,36.61
2022-09-06T12:42:05.812Z,36.51
2022-09-06T12:44:38.594Z,36.39
2022-09-06T12:47:11.489Z,35.97
2022-09-06T12:49:39.464Z,35.63
2022-09-06T12:52:15.636Z,35.15
2022-09-06T12:54:48.721Z,35.52
2022-09-06T12:57:24.305Z,35.65
2022-09-06T12:59:56.295Z,35.39
2022-09-06T13:02:42.698Z,35.05
2022-09-06T13:05:12.212Z,34.56
2022-09-06T13:07:46.751Z,34.31
2022-09-06T13:10:16.442Z,34.29
2022-09-06T13:12:50.329Z,33.79
2022-09-06T13:15:26.989Z,33.34
2022-09-06T13:18:14.653Z,33.31
2022-09-06T13:20:41.168Z,33.05
2022-09-06T13:23:10.662Z,33.03
2022-09-06T13:25:51.545Z,32.78
2022-09-06T13:28:26.732Z,32.74
2022-09-06T13:31:35.600Z,32.62
2022-09-06T13:34:02.076Z,32.66
2022-09-06T13:36:33.683Z,33.31
2022-09-06T13:39:03.447Z,33.65
2022-09-06T13:41:37.367Z,33.42
2022-09-06T13:44:18.541Z,33.16
2022-09-06T13:46:45.260Z,33.50
2022-09-06T13:49:11.853Z,33.85
2022-09-06T13:51:41.925Z,34.37
2022-09-06T13:54:11.297Z,34.32
2022-09-06T13:56:39.251Z,34.39
2022-09-06T13:59:07.205Z,34.49
2022-09-06T14:01:34.084Z,34.24
2022-09-06T14:04:04.022Z,34.06
2022-09-06T14:06:33.574Z,34.30
2022-09-06T14:09:07.422Z,34.02
2022-09-06T14:11:35.353Z,33.68
2022-09-06T14:14:01.837Z,33.50
2022-09-06T14:16:28.936Z,33.67
2022-09-06T14:18:55.622Z,34.01
2022-09-06T14:21:22.104Z,34.20
2022-09-06T14:23:51.000Z,34.34
2022-09-06T14:26:19.091Z,34.34
2022-09-06T14:28:45.633Z,34.17
2022-09-06T14:31:17.510Z,34.14
2022-09-06T14:33:44.390Z,34.10
2022-09-06T14:36:16.780Z,34.10
2022-09-06T14:38:45.307Z,34.05
2022-09-06T14:41:14.463Z,33.79
2022-09-06T14:43:48.998Z,33.74
2022-09-06T14:46:18.117Z,33.71
2022-09-06T14:48:45.466Z,33.67
2022-09-06T14:51:17.765Z,33.47
2022-09-06T14:53:45.301Z,33.14
2022-09-06T14:56:12.985Z,33.09
2022-09-06T14:58:40.473Z,33.20
2022-09-06T15:01:16.136Z,33.13
2022-09-06T15:03:46.973Z,32.99
2022-09-06T15:06:13.482Z,33.04
2022-09-06T15:08:39.972Z,32.86
2022-09-06T15:11:08.279Z,32.72
2022-09-06T15:13:37.133Z,32.58
2022-09-06T15:16:05.586Z,32.43
2022-09-06T15:18:33.115Z,32.35
2022-09-06T15:21:09.689Z,32.26
2022-09-06T15:23:36.847Z,32.23
2022-09-06T15:26:06.068Z,32.15
2022-09-06T15:28:37.343Z,32.10
2022-09-06T15:31:04.646Z,32.01
2022-09-06T15:33:32.740Z,31.99
2022-09-06T15:36:05.820Z,31.89
2022-09-06T15:38:36.952Z,31.74
2022-09-06T15:41:14.841Z,31.62
2022-09-06T15:43:47.944Z,31.51
2022-09-06T15:46:16.139Z,31.55
2022-09-06T15:48:45.624Z,31.59
2022-09-06T15:51:14.949Z,31.44
2022-09-06T15:53:42.104Z,31.03
2022-09-06T15:56:12.356Z,30.98
2022-09-06T15:58:39.210Z,30.87
2022-09-06T16:01:10.197Z,30.92
2022-09-06T16:03:39.200Z,30.84
2022-09-06T16:08:55.561Z,30.76
2022-09-06T16:11:21.985Z,30.58
2022-09-06T16:13:48.520Z,30.55
2022-09-06T16:16:16.671Z,30.55
2022-09-06T16:18:46.532Z,30.49
2022-09-06T16:21:19.138Z,30.53
2022-09-06T16:23:59.988Z,30.45
2022-09-06T16:26:29.356Z,30.38
2022-09-06T16:28:55.862Z,30.36
2022-09-06T16:31:22.643Z,30.34
2022-09-06T16:33:50.128Z,30.32
2022-09-06T16:36:18.889Z,30.14
2022-09-06T16:38:45.662Z,30.08
2022-09-06T16:41:19.654Z,29.87
2022-09-06T16:43:49.146Z,29.66
2022-09-06T16:46:16.159Z,29.53
2022-09-06T16:48:42.664Z,29.52
2022-09-06T16:51:11.581Z,29.44
2022-09-06T16:53:40.315Z,29.29
2022-09-06T16:56:11.537Z,29.20
2022-09-06T16:58:39.485Z,29.11
2022-09-06T17:01:06.200Z,29.05
2022-09-06T17:03:34.211Z,28.95
2022-09-06T17:06:00.688Z,28.84
2022-09-06T17:08:27.201Z,28.80
2022-09-06T17:10:53.697Z,28.76
2022-09-06T17:13:20.182Z,28.78
2022-09-06T17:16:12.277Z,28.79
2022-09-06T17:18:39.203Z,28.68
2022-09-06T17:21:06.076Z,28.57
2022-09-06T17:23:32.961Z,28.52
2022-09-06T17:26:00.098Z,28.47
2022-09-06T17:28:27.004Z,28.42
2022-09-06T17:30:53.551Z,28.36
2022-09-06T17:33:22.008Z,28.29
2022-09-06T17:35:48.524Z,28.20
2022-09-06T17:38:16.196Z,28.12
2022-09-06T17:40:43.376Z,28.05
2022-09-06T17:43:10.004Z,27.99
2022-09-06T17:45:38.122Z,27.89
2022-09-06T17:48:05.153Z,27.71
2022-09-06T17:50:32.497Z,27.63
2022-09-06T17:53:00.040Z,27.57
2022-09-06T17:55:28.842Z,27.53
2022-09-06T17:57:58.820Z,27.46
2022-09-06T18:00:26.189Z,27.43
2022-09-06T18:02:52.886Z,27.38
2022-09-06T18:05:19.416Z,27.28
2022-09-06T18:07:46.104Z,27.19
2022-09-06T18:10:14.974Z,27.07
2022-09-06T18:12:42.453Z,27.02
2022-09-06T18:15:09.611Z,27.01
2022-09-06T18:17:38.741Z,26.94
2022-09-06T18:20:06.048Z,26.90
2022-09-06T18:22:33.002Z,26.86
2022-09-06T18:24:59.586Z,26.82
2022-09-06T18:27:26.035Z,26.78
2022-09-06T18:29:52.525Z,26.78
2022-09-06T18:32:18.980Z,26.78
2022-09-06T18:34:45.459Z,26.73
2022-09-06T18:37:12.145Z,26.69
2022-09-06T18:39:39.558Z,26.68
2022-09-06T18:42:11.030Z,26.64
2022-09-06T18:44:38.189Z,26.62
2022-09-06T18:47:07.451Z,26.60
2022-09-06T18:49:35.211Z,26.58
2022-09-06T18:52:05.839Z,26.54
2022-09-06T18:54:33.015Z,26.46
2022-09-06T18:56:59.830Z,26.47
2022-09-06T18:59:26.770Z,26.39
2022-09-06T19:01:53.278Z,26.34
2022-09-06T19:04:19.958Z,26.28
2022-09-06T19:06:46.952Z,26.27
2022-09-06T19:09:16.231Z,26.28
2022-09-06T19:11:45.450Z,26.27
2022-09-06T19:14:12.289Z,26.23
2022-09-06T19:16:38.833Z,26.17
2022-09-06T19:19:08.706Z,26.14
2022-09-06T19:21:40.811Z,26.14
2022-09-06T19:24:10.042Z,26.08
2022-09-06T19:26:40.200Z,25.98
2022-09-06T19:29:11.059Z,25.92
2022-09-06T19:31:38.380Z,25.92
2022-09-06T19:34:05.459Z,25.88
2022-09-06T19:36:32.741Z,25.84
2022-09-06T19:39:04.409Z,25.79
2022-09-06T19:41:39.390Z,25.72
2022-09-06T19:44:08.417Z,25.69
2022-09-06T19:46:36.021Z,25.64
2022-09-06T19:49:03.295Z,25.54
2022-09-06T19:51:30.116Z,25.50
2022-09-06T19:54:00.028Z,25.42
2022-09-06T19:56:31.519Z,25.36
2022-09-06T19:58:59.566Z,25.22
2022-09-06T20:01:29.156Z,25.14
2022-09-06T20:03:56.426Z,25.10
2022-09-06T20:06:23.225Z,25.06
2022-09-06T20:08:54.046Z,25.08
2022-09-06T20:11:22.667Z,25.04
2022-09-06T20:13:49.785Z,25.01
2022-09-06T20:16:20.473Z,24.98
2022-09-06T20:18:47.639Z,24.90
2022-09-06T20:21:14.879Z,24.91
2022-09-06T20:23:41.549Z,24.88
2022-09-06T20:26:15.577Z,24.87
2022-09-06T20:28:44.035Z,24.86
2022-09-06T20:31:17.268Z,24.88
2022-09-06T20:33:49.322Z,24.91
2022-09-06T20:36:17.142Z,24.89
2022-09-06T20:38:44.939Z,24.86
2022-09-06T20:41:12.970Z,24.85
2022-09-06T20:43:40.438Z,24.79
2022-09-06T20:46:15.818Z,24.60
2022-09-06T20:48:44.950Z,24.49
2022-09-06T20:51:15.765Z,24.42
2022-09-06T20:53:42.590Z,24.24
2022-09-06T20:56:18.488Z,24.13
2022-09-06T20:58:56.814Z,24.04
2022-09-06T21:01:25.861Z,24.09
2022-09-06T21:03:55.610Z,24.09
2022-09-06T21:06:23.782Z,24.06
2022-09-06T21:08:50.733Z,24.11
2022-09-06T21:11:18.120Z,24.16
2022-09-06T21:13:49.384Z,24.22
2022-09-06T21:16:18.348Z,24.26
2022-09-06T21:18:51.582Z,24.29
2022-09-06T21:21:18.173Z,24.28
2022-09-06T21:23:44.699Z,24.07
2022-09-06T21:26:17.449Z,23.88
2022-09-06T21:28:45.554Z,23.71
2022-09-06T21:31:23.798Z,23.64
2022-09-06T21:33:55.431Z,23.57
2022-09-06T21:36:21.854Z,23.35
2022-09-06T21:38:50.569Z,23.22
2022-09-06T21:41:18.234Z,23.12
2022-09-06T21:43:45.712Z,23.06
2022-09-06T21:46:17.532Z,23.05
2022-09-06T21:48:46.751Z,23.02
2022-09-06T21:51:16.136Z,23.03
2022-09-06T21:53:44.902Z,22.99
2022-09-06T21:56:12.138Z,22.94
2022-09-06T21:58:39.940Z,22.98
2022-09-06T22:01:06.837Z,23.00
2022-09-06T22:03:36.706Z,22.94
2022-09-06T22:06:11.482Z,22.94
2022-09-06T22:08:38.873Z,22.92
2022-09-06T22:11:15.137Z,22.90
2022-09-06T22:13:42.545Z,22.89
2022-09-06T22:16:10.638Z,22.89
2022-09-06T22:18:37.409Z,22.90
2022-09-06T22:21:18.517Z,22.96
2022-09-06T22:23:56.960Z,22.99
2022-09-06T22:26:25.799Z,23.00
2022-09-06T22:28:56.930Z,23.01
2022-09-06T22:31:24.722Z,22.98
2022-09-06T22:33:51.513Z,22.95
2022-09-06T22:36:18.765Z,22.93
2022-09-06T22:38:45.258Z,22.91
2022-09-06T22:41:12.041Z,22.91
2022-09-06T22:43:38.832Z,22.90
2022-09-06T22:46:07.781Z,22.91
2022-09-06T22:48:35.039Z,22.89
2022-09-06T22:51:02.622Z,22.89
2022-09-06T22:53:30.537Z,22.83
2022-09-06T22:55:57.173Z,22.73
2022-09-06T22:58:25.050Z,22.75
2022-09-06T23:00:51.605Z,22.78
2022-09-06T23:03:18.802Z,22.77
2022-09-06T23:05:45.354Z,22.76
2022-09-06T23:08:12.101Z,22.70
2022-09-06T23:10:41.735Z,22.67
2022-09-06T23:13:09.195Z,22.68
2022-09-06T23:15:36.945Z,22.69
2022-09-06T23:18:04.109Z,22.69
2022-09-06T23:20:30.860Z,22.69
2022-09-06T23:22:57.300Z,22.69
2022-09-06T23:25:23.902Z,22.71
2022-09-06T23:27:50.364Z,22.74
2022-09-06T23:30:17.022Z,22.65
2022-09-06T23:32:43.484Z,22.68
2022-09-06T23:35:09.928Z,22.69
2022-09-06T23:37:36.683Z,22.65
2022-09-06T23:40:07.026Z,22.59
2022-09-06T23:42:35.492Z,22.44
2022-09-06T23:45:01.921Z,22.35
2022-09-06T23:47:28.495Z,22.32
2022-09-06T23:49:54.899Z,22.25
2022-09-06T23:52:21.334Z,22.15
2022-09-06T23:54:47.822Z,22.11
2022-09-06T23:57:14.286Z,22.06
2022-09-06T23:59:40.730Z,22.01
